Time;durP1;ratioP1;P1;durP2;ratioP2;P2;SDS_P1;SDS_P2;PMS_P1;PMS_P2;Temp;Humidity;BMP_temperature;BMP_pressure;BME280_temperature;BME280_humidity;BME280_pressure;Samples;Min_cycle;Max_cycle;Signal;HPM_P1;HPM_P2
2022/10/17 00:00:52;;;;;;;0.57;0.57;;;;;;;;;;5074182;28;20355;-23
2022/10/17 00:03:18;;;;;;;0.60;0.60;;;;;;;;;;5074351;28;20403;-22
2022/10/17 00:05:47;;;;;;;0.90;0.90;;;;;;;;;;5074354;28;20025;-22
2022/10/17 00:08:14;;;;;;;0.60;0.60;;;;;;;;;;5074365;28;20101;-22
2022/10/17 00:10:41;;;;;;;0.95;0.90;;;;;;;;;;5074008;28;20028;-24
2022/10/17 00:13:07;;;;;;;0.80;0.80;;;;;;;;;;5074026;28;20013;-22
2022/10/17 00:15:34;;;;;;;0.57;0.57;;;;;;;;;;5074023;28;20055;-22
2022/10/17 00:18:00;;;;;;;1.30;0.90;;;;;;;;;;5074294;28;20043;-23
2022/10/17 00:20:29;;;;;;;0.90;0.90;;;;;;;;;;5074292;28;20025;-22
2022/10/17 00:22:55;;;;;;;1.00;0.90;;;;;;;;;;5077135;28;20028;-22
2022/10/17 00:25:21;;;;;;;0.88;0.88;;;;;;;;;;5077509;28;20025;-23
2022/10/17 00:27:47;;;;;;;0.75;0.75;;;;;;;;;;5077481;28;20502;-23
2022/10/17 00:30:15;;;;;;;0.80;0.70;;;;;;;;;;5077444;28;20490;-25
2022/10/17 00:32:41;;;;;;;0.70;0.70;;;;;;;;;;5077320;28;20036;-22
2022/10/17 00:35:08;;;;;;;0.80;0.80;;;;;;;;;;5077233;28;20021;-24
2022/10/17 00:37:34;;;;;;;0.70;0.70;;;;;;;;;;5077596;28;20025;-23
2022/10/17 00:40:00;;;;;;;0.73;0.73;;;;;;;;;;5077260;28;20466;-25
2022/10/17 00:42:27;;;;;;;0.47;0.47;;;;;;;;;;5077432;28;20104;-24
2022/10/17 00:45:02;;;;;;;0.77;0.60;;;;;;;;;;5077489;28;20044;-22
2022/10/17 00:47:28;;;;;;;0.60;0.60;;;;;;;;;;5077154;28;20456;-23
2022/10/17 00:49:55;;;;;;;0.63;0.60;;;;;;;;;;5077135;28;20029;-22
2022/10/17 00:52:22;;;;;;;1.00;1.00;;;;;;;;;;5077251;28;20115;-23
2022/10/17 00:54:51;;;;;;;0.60;0.60;;;;;;;;;;5077203;28;20039;-22
2022/10/17 00:57:17;;;;;;;0.75;0.75;;;;;;;;;;5077747;28;20111;-24
2022/10/17 00:59:46;;;;;;;0.60;0.60;;;;;;;;;;5076874;28;20040;-22
2022/10/17 01:02:14;;;;;;;0.70;0.70;;;;;;;;;;5077086;28;20029;-22
2022/10/17 01:04:41;;;;;;;0.60;0.60;;;;;;;;;;5076846;28;20028;-24
2022/10/17 01:07:08;;;;;;;0.63;0.63;;;;;;;;;;5077060;28;20396;-22
2022/10/17 01:09:35;;;;;;;0.93;0.68;;;;;;;;;;5076677;28;20098;-23
2022/10/17 01:12:10;;;;;;;0.80;0.80;;;;;;;;;;5076553;28;20511;-23
2022/10/17 01:14:46;;;;;;;0.60;0.60;;;;;;;;;;5076425;28;20452;-22
2022/10/17 01:17:12;;;;;;;0.73;0.73;;;;;;;;;;5076603;28;20428;-25
2022/10/17 01:19:47;;;;;;;0.65;0.65;;;;;;;;;;5076825;28;20025;-22
2022/10/17 01:22:16;;;;;;;0.57;0.50;;;;;;;;;;5076737;28;20035;-23
2022/10/17 01:25:07;;;;;;;0.77;0.77;;;;;;;;;;5076756;28;20039;-22
2022/10/17 01:27:57;;;;;;;0.95;0.95;;;;;;;;;;5076759;28;20089;-24
2022/10/17 01:30:42;;;;;;;0.60;0.60;;;;;;;;;;5076673;28;20024;-22
2022/10/17 01:33:08;;;;;;;0.93;0.63;;;;;;;;;;5076507;28;20028;-24
2022/10/17 01:35:47;;;;;;;0.60;0.60;;;;;;;;;;5076157;28;20025;-23
2022/10/17 01:38:18;;;;;;;0.93;0.85;;;;;;;;;;5076514;28;20021;-23
2022/10/17 01:40:44;;;;;;;1.05;0.98;;;;;;;;;;5076436;28;20075;-22
2022/10/17 01:43:10;;;;;;;2.60;0.80;;;;;;;;;;5075943;28;20016;-22
2022/10/17 01:46:03;;;;;;;1.02;0.80;;;;;;;;;;5076293;28;20058;-22
2022/10/17 01:48:41;;;;;;;0.60;0.50;;;;;;;;;;5075664;28;20060;-22
2022/10/17 01:51:18;;;;;;;0.73;0.73;;;;;;;;;;5076287;28;20078;-22
2022/10/17 01:53:58;;;;;;;0.70;0.70;;;;;;;;;;5075778;28;20078;-23
2022/10/17 01:56:26;;;;;;;0.63;0.63;;;;;;;;;;5076035;28;20028;-22
2022/10/17 01:58:55;;;;;;;0.73;0.70;;;;;;;;;;5075697;28;20031;-22
2022/10/17 02:01:22;;;;;;;0.93;0.90;;;;;;;;;;5075983;28;20017;-23
2022/10/17 02:03:50;;;;;;;0.82;0.60;;;;;;;;;;5075576;28;20024;-24
2022/10/17 02:06:17;;;;;;;0.50;0.50;;;;;;;;;;5075594;28;20041;-24
2022/10/17 02:08:44;;;;;;;0.63;0.63;;;;;;;;;;5075551;28;20056;-24
2022/10/17 02:11:22;;;;;;;0.85;0.85;;;;;;;;;;5075504;28;20036;-22
2022/10/17 02:13:48;;;;;;;0.75;0.63;;;;;;;;;;5075305;28;20068;-23
2022/10/17 02:16:33;;;;;;;0.70;0.70;;;;;;;;;;5075393;28;20048;-23
2022/10/17 02:19:03;;;;;;;0.50;0.50;;;;;;;;;;5075621;28;20127;-23
2022/10/17 02:21:41;;;;;;;0.60;0.60;;;;;;;;;;5075622;28;20012;-22
2022/10/17 02:24:12;;;;;;;0.68;0.68;;;;;;;;;;5075282;28;20111;-23
2022/10/17 02:26:44;;;;;;;0.60;0.60;;;;;;;;;;5075577;28;20071;-23
2022/10/17 02:29:21;;;;;;;0.88;0.88;;;;;;;;;;5075507;28;20029;-24
2022/10/17 02:31:49;;;;;;;1.10;0.60;;;;;;;;;;5075472;28;20040;-24
2022/10/17 02:34:22;;;;;;;0.80;0.80;;;;;;;;;;5075077;28;20333;-23
2022/10/17 02:36:57;;;;;;;0.70;0.70;;;;;;;;;;5075024;28;20044;-22
2022/10/17 02:39:24;;;;;;;0.68;0.68;;;;;;;;;;5075312;28;20351;-22
2022/10/17 02:41:52;;;;;;;0.70;0.70;;;;;;;;;;5075188;28;20020;-23
2022/10/17 02:44:18;;;;;;;0.73;0.65;;;;;;;;;;5074821;28;20032;-22
2022/10/17 02:46:48;;;;;;;0.80;0.80;;;;;;;;;;5074939;28;20043;-24
2022/10/17 02:49:21;;;;;;;0.90;0.70;;;;;;;;;;5075179;28;20103;-23
2022/10/17 02:51:47;;;;;;;0.70;0.50;;;;;;;;;;5074892;28;20475;-22
2022/10/17 02:54:31;;;;;;;0.50;0.50;;;;;;;;;;5075051;28;20036;-23
2022/10/17 02:57:00;;;;;;;0.77;0.77;;;;;;;;;;5075075;28;20046;-22
2022/10/17 02:59:28;;;;;;;0.50;0.50;;;;;;;;;;5075055;28;20021;-22
2022/10/17 03:01:54;;;;;;;0.50;0.50;;;;;;;;;;5074638;28;20031;-22
2022/10/17 03:04:20;;;;;;;1.88;0.70;;;;;;;;;;5074689;28;20036;-23
2022/10/17 03:06:48;;;;;;;0.82;0.82;;;;;;;;;;5074730;28;20021;-25
2022/10/17 03:09:14;;;;;;;0.68;0.68;;;;;;;;;;5074924;28;20048;-22
2022/10/17 03:11:40;;;;;;;0.60;0.60;;;;;;;;;;5074943;28;20028;-25
2022/10/17 03:14:07;;;;;;;0.80;0.80;;;;;;;;;;5074298;28;20044;-22
2022/10/17 03:16:33;;;;;;;0.75;0.75;;;;;;;;;;5074596;28;20082;-23
2022/10/17 03:18:59;;;;;;;0.98;0.80;;;;;;;;;;5074849;28;20021;-22
2022/10/17 03:21:25;;;;;;;0.80;0.80;;;;;;;;;;5074852;28;20020;-23
2022/10/17 03:23:51;;;;;;;0.60;0.60;;;;;;;;;;5074760;28;20024;-24
2022/10/17 03:26:17;;;;;;;1.25;0.82;;;;;;;;;;5074523;28;20255;-22
2022/10/17 03:28:43;;;;;;;0.60;0.60;;;;;;;;;;5074525;28;20187;-23
2022/10/17 03:31:10;;;;;;;0.60;0.60;;;;;;;;;;5075016;28;20032;-22
2022/10/17 03:33:37;;;;;;;0.70;0.70;;;;;;;;;;5074257;28;20035;-24
2022/10/17 03:36:09;;;;;;;0.57;0.57;;;;;;;;;;5074436;28;20146;-24
2022/10/17 03:38:36;;;;;;;0.60;0.60;;;;;;;;;;5074367;28;20031;-22
2022/10/17 03:41:03;;;;;;;0.63;0.63;;;;;;;;;;5074399;28;20048;-24
2022/10/17 03:43:30;;;;;;;0.70;0.70;;;;;;;;;;5074495;28;20457;-25
2022/10/17 03:46:00;;;;;;;0.70;0.70;;;;;;;;;;5074533;28;20086;-22
2022/10/17 03:48:27;;;;;;;0.70;0.70;;;;;;;;;;5074513;28;20024;-27
2022/10/17 03:50:57;;;;;;;1.02;1.02;;;;;;;;;;5074225;28;20040;-23
2022/10/17 03:53:24;;;;;;;0.82;0.82;;;;;;;;;;5074369;28;20116;-22
2022/10/17 03:55:50;;;;;;;0.63;0.63;;;;;;;;;;5074236;28;20107;-24
2022/10/17 03:58:16;;;;;;;0.68;0.68;;;;;;;;;;5078222;28;20021;-23
2022/10/17 04:00:42;;;;;;;0.88;0.70;;;;;;;;;;5078038;28;20024;-24
2022/10/17 04:03:08;;;;;;;0.80;0.80;;;;;;;;;;5077973;28;20020;-24
2022/10/17 04:05:34;;;;;;;0.70;0.70;;;;;;;;;;5078123;28;20021;-22
2022/10/17 04:08:00;;;;;;;1.15;0.70;;;;;;;;;;5078055;28;20092;-23
2022/10/17 04:10:26;;;;;;;0.68;0.68;;;;;;;;;;5077594;28;20035;-22
2022/10/17 04:12:53;;;;;;;0.70;0.70;;;;;;;;;;5077378;28;20037;-24
2022/10/17 04:15:19;;;;;;;0.82;0.82;;;;;;;;;;5077526;28;20032;-22
2022/10/17 04:17:45;;;;;;;0.70;0.70;;;;;;;;;;5078115;28;20036;-24
2022/10/17 04:20:11;;;;;;;0.55;0.55;;;;;;;;;;5077882;28;20025;-22
2022/10/17 04:22:37;;;;;;;0.60;0.60;;;;;;;;;;5077421;28;20108;-24
2022/10/17 04:25:03;;;;;;;0.70;0.68;;;;;;;;;;5078217;28;20032;-23
2022/10/17 04:27:30;;;;;;;0.63;0.63;;;;;;;;;;5077385;28;20039;-23
2022/10/17 04:29:56;;;;;;;1.00;1.00;;;;;;;;;;5077387;28;20094;-24
2022/10/17 04:32:22;;;;;;;0.85;0.75;;;;;;;;;;5077212;28;20052;-23
2022/10/17 04:34:49;;;;;;;0.60;0.60;;;;;;;;;;5077411;28;20111;-24
2022/10/17 04:37:15;;;;;;;1.88;0.80;;;;;;;;;;5077526;28;20036;-26
2022/10/17 04:39:41;;;;;;;0.98;0.50;;;;;;;;;;5077103;28;20112;-23
2022/10/17 04:42:07;;;;;;;1.98;0.77;;;;;;;;;;5077055;28;20029;-22
2022/10/17 04:44:34;;;;;;;1.25;1.20;;;;;;;;;;5078150;28;20025;-22
2022/10/17 04:47:00;;;;;;;1.27;0.90;;;;;;;;;;5077346;28;20028;-24
2022/10/17 04:49:27;;;;;;;0.80;0.80;;;;;;;;;;5077322;28;20032;-22
2022/10/17 04:51:53;;;;;;;2.78;1.00;;;;;;;;;;5076910;28;20355;-22
2022/10/17 04:54:19;;;;;;;0.82;0.60;;;;;;;;;;5076932;28;20028;-23
2022/10/17 04:56:46;;;;;;;9.43;1.30;;;;;;;;;;5076999;28;20051;-23
2022/10/17 04:59:12;;;;;;;2.75;0.90;;;;;;;;;;5076720;28;20027;-25
2022/10/17 05:01:38;;;;;;;3.47;1.05;;;;;;;;;;5075740;28;20448;-23
2022/10/17 05:04:04;;;;;;;3.05;1.17;;;;;;;;;;5076697;28;20161;-23
2022/10/17 05:06:31;;;;;;;2.95;0.80;;;;;;;;;;5076702;28;20030;-23
2022/10/17 05:08:58;;;;;;;2.97;0.68;;;;;;;;;;5076730;28;20067;-25
2022/10/17 05:11:28;;;;;;;2.45;0.90;;;;;;;;;;5076592;28;20039;-22
2022/10/17 05:13:59;;;;;;;0.98;0.88;;;;;;;;;;5076351;28;20091;-23
2022/10/17 05:16:25;;;;;;;1.10;1.00;;;;;;;;;;5076884;28;20024;-23
2022/10/17 05:18:52;;;;;;;2.75;1.65;;;;;;;;;;5076584;28;20100;-23
2022/10/17 05:21:19;;;;;;;1.17;0.93;;;;;;;;;;5076469;28;20032;-31
2022/10/17 05:23:45;;;;;;;1.55;0.95;;;;;;;;;;5076576;28;20028;-24
2022/10/17 05:26:11;;;;;;;5.90;0.80;;;;;;;;;;5076455;28;20017;-23
2022/10/17 05:28:38;;;;;;;4.03;1.20;;;;;;;;;;5076462;28;20028;-24
2022/10/17 05:31:04;;;;;;;18.67;3.70;;;;;;;;;;5076238;28;20111;-31
2022/10/17 05:33:30;;;;;;;1.88;1.00;;;;;;;;;;5076331;28;20016;-26
2022/10/17 05:35:56;;;;;;;6.65;1.10;;;;;;;;;;5076471;28;20055;-23
2022/10/17 05:38:23;;;;;;;3.20;1.17;;;;;;;;;;5076425;28;20421;-26
2022/10/17 05:40:49;;;;;;;5.50;0.85;;;;;;;;;;5076014;28;20036;-24
2022/10/17 05:43:15;;;;;;;5.20;1.92;;;;;;;;;;5076008;28;20025;-24
2022/10/17 05:45:41;;;;;;;3.60;1.00;;;;;;;;;;5075951;28;20447;-23
2022/10/17 05:48:08;;;;;;;1.75;0.88;;;;;;;;;;5076203;28;20459;-25
2022/10/17 05:50:34;;;;;;;7.60;1.10;;;;;;;;;;5075817;28;20029;-27
2022/10/17 05:53:00;;;;;;;4.22;1.00;;;;;;;;;;5075788;28;20097;-27
2022/10/17 05:55:27;;;;;;;3.03;1.15;;;;;;;;;;5075895;28;20028;-24
2022/10/17 05:57:53;;;;;;;4.20;1.35;;;;;;;;;;5075666;28;20047;-22
2022/10/17 06:03:20;;;;;;;11.35;1.35;;;;;;;;;;5359504;23;20437;-28
2022/10/17 06:05:46;;;;;;;5.47;1.45;;;;;;;;;;5035615;28;20445;-30
2022/10/17 06:08:13;;;;;;;8.82;1.55;;;;;;;;;;5035613;28;20064;-31
2022/10/17 06:10:39;;;;;;;7.95;1.42;;;;;;;;;;5035753;28;20029;-30
2022/10/17 06:13:05;;;;;;;6.78;2.28;;;;;;;;;;5035340;28;20025;-30
2022/10/17 06:15:31;;;;;;;6.35;1.48;;;;;;;;;;5035386;28;20483;-30
2022/10/17 06:17:57;;;;;;;9.52;1.40;;;;;;;;;;5035561;28;20030;-29
2022/10/17 06:20:23;;;;;;;11.13;1.40;;;;;;;;;;5017141;28;20022;-30
2022/10/17 06:22:50;;;;;;;5.72;1.40;;;;;;;;;;5035182;28;20025;-27
2022/10/17 06:25:16;;;;;;;11.88;1.60;;;;;;;;;;5035271;28;20471;-28
2022/10/17 06:27:42;;;;;;;12.35;1.65;;;;;;;;;;5035174;28;20034;-29
2022/10/17 06:30:08;;;;;;;9.43;1.38;;;;;;;;;;5035724;28;20043;-29
2022/10/17 06:32:34;;;;;;;8.23;1.25;;;;;;;;;;5035264;28;20033;-28
2022/10/17 06:35:00;;;;;;;7.43;1.35;;;;;;;;;;5034891;28;20029;-29
2022/10/17 06:37:31;;;;;;;5.05;1.40;;;;;;;;;;5034909;28;20101;-29
2022/10/17 06:39:57;;;;;;;5.45;1.52;;;;;;;;;;5035221;28;20052;-29
2022/10/17 06:42:23;;;;;;;5.85;2.65;;;;;;;;;;5034909;28;20360;-29
2022/10/17 06:44:49;;;;;;;8.40;1.70;;;;;;;;;;5035023;28;20057;-29
2022/10/17 06:47:15;;;;;;;14.50;1.77;;;;;;;;;;5034961;28;20021;-29
2022/10/17 06:49:41;;;;;;;7.85;1.40;;;;;;;;;;5034690;28;20121;-30
2022/10/17 06:52:08;;;;;;;9.25;1.45;;;;;;;;;;5017152;28;20033;-30
2022/10/17 06:54:34;;;;;;;5.00;1.98;;;;;;;;;;5034879;28;20025;-29
2022/10/17 06:57:00;;;;;;;12.93;1.60;;;;;;;;;;5034564;28;20029;-29
2022/10/17 06:59:26;;;;;;;13.25;2.05;;;;;;;;;;5034550;28;20106;-29
2022/10/17 07:01:52;;;;;;;8.90;1.33;;;;;;;;;;5017149;28;20036;-29
2022/10/17 07:04:19;;;;;;;19.98;2.83;;;;;;;;;;5034398;28;20041;-29
2022/10/17 07:06:45;;;;;;;11.52;2.00;;;;;;;;;;5034610;28;20025;-29
2022/10/17 07:09:11;;;;;;;5.00;1.70;;;;;;;;;;5034846;28;20029;-29
2022/10/17 07:11:39;;;;;;;5.28;1.58;;;;;;;;;;5034792;28;20037;-29
2022/10/17 07:14:05;;;;;;;6.00;1.27;;;;;;;;;;5034667;28;20032;-29
2022/10/17 07:16:31;;;;;;;4.10;1.52;;;;;;;;;;5034746;28;20025;-29
2022/10/17 07:18:57;;;;;;;10.93;1.77;;;;;;;;;;5034647;28;20043;-29
2022/10/17 07:21:23;;;;;;;14.00;1.90;;;;;;;;;;5034667;28;20017;-29
2022/10/17 07:23:49;;;;;;;7.80;1.70;;;;;;;;;;5034586;28;20029;-28
2022/10/17 07:26:17;;;;;;;8.70;2.03;;;;;;;;;;5034296;28;20452;-29
2022/10/17 07:28:44;;;;;;;10.50;1.80;;;;;;;;;;5034245;28;20078;-29
2022/10/17 07:31:11;;;;;;;8.27;2.28;;;;;;;;;;5037015;28;20021;-29
2022/10/17 07:33:38;;;;;;;11.18;1.80;;;;;;;;;;5038099;28;20356;-29
2022/10/17 07:36:05;;;;;;;11.45;1.70;;;;;;;;;;5038534;28;20407;-29
2022/10/17 07:38:31;;;;;;;4.93;1.58;;;;;;;;;;5020821;28;20037;-29
2022/10/17 07:40:58;;;;;;;5.97;1.35;;;;;;;;;;5038589;28;20460;-29
2022/10/17 07:43:25;;;;;;;12.73;1.88;;;;;;;;;;5038113;28;20201;-29
2022/10/17 07:45:51;;;;;;;14.32;1.88;;;;;;;;;;5038114;28;20025;-29
2022/10/17 07:48:18;;;;;;;9.82;2.08;;;;;;;;;;5038123;28;20087;-29
2022/10/17 07:50:44;;;;;;;11.77;2.53;;;;;;;;;;5038000;28;20034;-28
2022/10/17 07:53:10;;;;;;;11.82;2.97;;;;;;;;;;5038234;28;20022;-29
2022/10/17 07:55:37;;;;;;;10.50;2.60;;;;;;;;;;5039037;28;20064;-29
2022/10/17 07:58:03;;;;;;;5.82;1.35;;;;;;;;;;5038333;28;20064;-29
2022/10/17 08:00:29;;;;;;;8.98;1.75;;;;;;;;;;5038196;28;20113;-29
2022/10/17 08:02:55;;;;;;;7.40;2.33;;;;;;;;;;5038358;28;20049;-29
2022/10/17 08:05:22;;;;;;;17.08;1.80;;;;;;;;;;5038094;28;20166;-28
2022/10/17 08:07:48;;;;;;;11.20;1.95;;;;;;;;;;5038035;28;20106;-29
2022/10/17 08:10:15;;;;;;;8.48;1.55;;;;;;;;;;5037597;28;20310;-28
2022/10/17 08:12:41;;;;;;;11.48;1.75;;;;;;;;;;5037862;28;20443;-29
2022/10/17 08:15:07;;;;;;;12.52;1.80;;;;;;;;;;5037607;28;20025;-29
2022/10/17 08:17:34;;;;;;;11.85;2.47;;;;;;;;;;5037621;28;20043;-29
2022/10/17 08:20:01;;;;;;;7.68;2.10;;;;;;;;;;5037567;28;20029;-29
2022/10/17 08:22:27;;;;;;;3.58;1.52;;;;;;;;;;5037533;28;20026;-29
2022/10/17 08:24:53;;;;;;;14.20;2.00;;;;;;;;;;5037818;28;20052;-29
2022/10/17 08:27:23;;;;;;;20.05;2.22;;;;;;;;;;5037642;28;20415;-28
2022/10/17 08:29:52;;;;;;;9.52;2.20;;;;;;;;;;5019879;28;20097;-29
2022/10/17 08:32:19;;;;;;;12.63;1.75;;;;;;;;;;5037226;28;20088;-29
2022/10/17 08:34:45;;;;;;;10.93;2.17;;;;;;;;;;5037242;28;20033;-29
2022/10/17 08:37:15;;;;;;;9.68;2.35;;;;;;;;;;5037296;28;20056;-28
2022/10/17 08:39:41;;;;;;;15.23;2.75;;;;;;;;;;5037275;28;20044;-29
2022/10/17 08:42:10;;;;;;;11.23;2.03;;;;;;;;;;5036637;28;20026;-29
2022/10/17 08:44:46;;;;;;;12.10;2.22;;;;;;;;;;5037124;28;20060;-29
2022/10/17 08:47:14;;;;;;;9.45;1.70;;;;;;;;;;5037495;28;20025;-29
2022/10/17 08:49:47;;;;;;;20.80;2.88;;;;;;;;;;5037397;28;20080;-29
2022/10/17 08:52:34;;;;;;;13.10;2.63;;;;;;;;;;5036844;28;20029;-29
2022/10/17 08:55:00;;;;;;;7.80;3.20;;;;;;;;;;5036624;28;20037;-29
2022/10/17 08:57:27;;;;;;;6.78;1.85;;;;;;;;;;5036926;28;20108;-29
2022/10/17 08:59:54;;;;;;;10.38;2.70;;;;;;;;;;5037022;28;20027;-29
2022/10/17 09:02:29;;;;;;;11.18;2.25;;;;;;;;;;5036602;28;20042;-29
2022/10/17 09:05:12;;;;;;;11.43;1.75;;;;;;;;;;5019253;28;20037;-29
2022/10/17 09:07:42;;;;;;;7.07;2.10;;;;;;;;;;5036869;28;20040;-30
2022/10/17 09:10:37;;;;;;;16.60;2.03;;;;;;;;;;5036394;28;20383;-29
2022/10/17 09:13:17;;;;;;;12.35;2.78;;;;;;;;;;5023737;28;20392;-29
2022/10/17 09:15:52;;;;;;;12.02;1.75;;;;;;;;;;5036683;28;20125;-29
2022/10/17 09:18:21;;;;;;;11.35;2.10;;;;;;;;;;5019027;28;20108;-29
2022/10/17 09:20:51;;;;;;;8.98;2.60;;;;;;;;;;5036343;28;20452;-29
2022/10/17 09:23:19;;;;;;;11.95;2.15;;;;;;;;;;5036316;28;20027;-29
2022/10/17 09:25:55;;;;;;;20.00;2.08;;;;;;;;;;5036379;28;20025;-29
2022/10/17 09:28:24;;;;;;;9.38;2.35;;;;;;;;;;5018954;28;20132;-29
2022/10/17 09:31:00;;;;;;;15.02;2.38;;;;;;;;;;5036179;28;20025;-29
2022/10/17 09:33:29;;;;;;;7.28;2.05;;;;;;;;;;5036253;28;20360;-29
2022/10/17 09:35:56;;;;;;;9.30;2.03;;;;;;;;;;5036036;28;20029;-29
2022/10/17 09:38:25;;;;;;;10.32;2.58;;;;;;;;;;5036172;28;20034;-29
2022/10/17 09:40:55;;;;;;;12.20;2.35;;;;;;;;;;5036149;28;20412;-29
2022/10/17 09:43:23;;;;;;;9.43;2.60;;;;;;;;;;5035969;28;20032;-30
2022/10/17 09:45:59;;;;;;;8.77;2.10;;;;;;;;;;5035896;28;20025;-29
2022/10/17 09:48:29;;;;;;;7.10;2.28;;;;;;;;;;5036032;28;20474;-29
2022/10/17 09:50:56;;;;;;;15.73;2.67;;;;;;;;;;5036389;28;20021;-29
2022/10/17 09:53:24;;;;;;;15.27;2.22;;;;;;;;;;5035166;28;20025;-29
2022/10/17 09:55:54;;;;;;;15.32;2.83;;;;;;;;;;5035438;28;20048;-28
2022/10/17 09:58:20;;;;;;;8.10;2.90;;;;;;;;;;5035727;28;20029;-29
2022/10/17 10:00:47;;;;;;;9.88;2.83;;;;;;;;;;5035588;28;20044;-30
2022/10/17 10:03:24;;;;;;;8.55;2.22;;;;;;;;;;5035398;28;20380;-30
2022/10/17 10:06:13;;;;;;;10.85;2.38;;;;;;;;;;5035674;28;20029;-29
2022/10/17 10:08:53;;;;;;;7.18;1.90;;;;;;;;;;5028254;28;20041;-29
2022/10/17 10:11:23;;;;;;;12.60;2.78;;;;;;;;;;5035589;28;20116;-29
2022/10/17 10:13:49;;;;;;;16.70;2.50;;;;;;;;;;5035723;28;20033;-29
2022/10/17 10:16:21;;;;;;;21.35;2.80;;;;;;;;;;5018087;28;20036;-29
2022/10/17 10:18:47;;;;;;;23.60;3.28;;;;;;;;;;5035359;28;20112;-29
2022/10/17 10:21:19;;;;;;;8.80;2.20;;;;;;;;;;5035647;28;20101;-30
2022/10/17 10:23:45;;;;;;;;;;;;;;;;;;5035684;28;20060;-29
2022/10/17 10:26:34;;;;;;;12.82;2.88;;;;;;;;;;5035531;28;20252;-28
2022/10/17 10:29:02;;;;;;;11.40;3.03;;;;;;;;;;5027601;28;20048;-29
2022/10/17 10:31:38;;;;;;;17.58;2.40;;;;;;;;;;5035048;28;20111;-29
2022/10/17 10:34:16;;;;;;;10.70;2.97;;;;;;;;;;5035120;28;20030;-29
2022/10/17 10:36:44;;;;;;;10.20;2.20;;;;;;;;;;5034979;28;20021;-29
2022/10/17 10:39:15;;;;;;;18.75;3.35;;;;;;;;;;5018264;28;20034;-29
2022/10/17 10:41:41;;;;;;;;;;;;;;;;;;5035326;28;20096;-29
2022/10/17 10:44:12;;;;;;;14.75;2.50;;;;;;;;;;5034953;28;20043;-29
2022/10/17 10:46:38;;;;;;;14.75;3.25;;;;;;;;;;5034887;28;20025;-29
2022/10/17 10:49:04;;;;;;;16.60;3.33;;;;;;;;;;5034775;28;20052;-29
2022/10/17 10:51:30;;;;;;;15.35;2.50;;;;;;;;;;5035093;28;20413;-29
2022/10/17 10:54:06;;;;;;;13.00;2.38;;;;;;;;;;5034557;28;20472;-29
2022/10/17 10:56:33;;;;;;;11.55;2.85;;;;;;;;;;5034768;28;20031;-29
2022/10/17 10:59:08;;;;;;;18.65;2.75;;;;;;;;;;5034714;28;20064;-28
2022/10/17 11:01:43;;;;;;;9.23;2.63;;;;;;;;;;5034979;28;20024;-29
2022/10/17 11:04:28;;;;;;;10.13;2.50;;;;;;;;;;5034573;28;20045;-29
2022/10/17 11:07:03;;;;;;;11.23;2.80;;;;;;;;;;5017160;28;20520;-29
2022/10/17 11:10:07;;;;;;;15.75;2.78;;;;;;;;;;5035026;28;20091;-29
2022/10/17 11:12:39;;;;;;;20.80;4.70;;;;;;;;;;4974449;28;20041;-29
2022/10/17 11:15:21;;;;;;;10.60;2.90;;;;;;;;;;4974159;28;20518;-29
2022/10/17 11:17:51;;;;;;;13.15;2.60;;;;;;;;;;4994949;28;20056;-29
2022/10/17 11:20:26;;;;;;;11.73;2.28;;;;;;;;;;5034448;28;20030;-29
2022/10/17 11:22:56;;;;;;;14.13;3.42;;;;;;;;;;5034328;28;20025;-29
2022/10/17 11:25:33;;;;;;;11.18;3.42;;;;;;;;;;5034403;28;20411;-29
2022/10/17 11:28:00;;;;;;;14.63;3.08;;;;;;;;;;5034698;28;20112;-29
2022/10/17 11:30:28;;;;;;;15.98;3.67;;;;;;;;;;5034327;28;20152;-29
2022/10/17 11:32:59;;;;;;;11.43;2.60;;;;;;;;;;5016829;28;20448;-29
2022/10/17 11:35:31;;;;;;;21.98;3.33;;;;;;;;;;5016895;28;20085;-29
2022/10/17 11:38:02;;;;;;;19.25;4.30;;;;;;;;;;5034439;28;20096;-29
2022/10/17 11:40:33;;;;;;;30.85;3.85;;;;;;;;;;5034273;28;20355;-29
2022/10/17 11:42:59;;;;;;;;;;;;;;;;;;5034753;28;20364;-29
2022/10/17 11:45:27;;;;;;;18.58;2.97;;;;;;;;;;5016852;28;19909;-29
2022/10/17 11:47:58;;;;;;;15.80;3.45;;;;;;;;;;5033952;28;20037;-29
2022/10/17 11:50:24;;;;;;;18.67;4.00;;;;;;;;;;5017376;28;20057;-29
2022/10/17 11:52:53;;;;;;;19.05;3.30;;;;;;;;;;5034933;28;20106;-29
2022/10/17 11:55:24;;;;;;;13.40;2.85;;;;;;;;;;5033849;28;20060;-29
2022/10/17 11:58:15;;;;;;;13.55;2.55;;;;;;;;;;5034178;28;20101;-29
2022/10/17 12:00:56;;;;;;;17.73;2.88;;;;;;;;;;5034402;28;20021;-29
2022/10/17 12:03:26;;;;;;;24.58;2.67;;;;;;;;;;5033802;28;20060;-29
2022/10/17 12:06:01;;;;;;;15.27;2.92;;;;;;;;;;5034354;28;20060;-29
2022/10/17 12:08:33;;;;;;;8.18;2.22;;;;;;;;;;5035133;28;20041;-29
2022/10/17 12:11:20;;;;;;;15.80;3.03;;;;;;;;;;5034329;28;20033;-29
2022/10/17 12:13:47;;;;;;;10.20;2.75;;;;;;;;;;5033806;28;20029;-29
2022/10/17 12:16:19;;;;;;;16.55;3.15;;;;;;;;;;5016857;28;20112;-29
2022/10/17 12:18:45;;;;;;;15.60;3.13;;;;;;;;;;5037346;28;20029;-29
2022/10/17 12:21:12;;;;;;;10.43;2.50;;;;;;;;;;5037666;28;20096;-30
2022/10/17 12:23:39;;;;;;;10.05;2.50;;;;;;;;;;5037536;28;20029;-29
2022/10/17 12:26:08;;;;;;;14.23;3.15;;;;;;;;;;5037434;28;20033;-29
2022/10/17 12:28:37;;;;;;;21.83;4.07;;;;;;;;;;5037453;28;20095;-29
2022/10/17 12:31:05;;;;;;;17.83;3.75;;;;;;;;;;5037631;28;20040;-29
2022/10/17 12:33:34;;;;;;;17.60;3.47;;;;;;;;;;5037426;28;20022;-29
2022/10/17 12:36:12;;;;;;;19.92;3.13;;;;;;;;;;5037563;28;20418;-32
2022/10/17 12:38:38;;;;;;;16.67;3.22;;;;;;;;;;5037264;28;20029;-29
2022/10/17 12:41:04;;;;;;;21.60;3.58;;;;;;;;;;5037312;28;20026;-28
2022/10/17 12:43:31;;;;;;;25.52;5.70;;;;;;;;;;5037169;28;20061;-29
2022/10/17 12:45:57;;;;;;;32.88;4.05;;;;;;;;;;5036976;28;20029;-29
2022/10/17 12:48:33;;;;;;;28.05;4.05;;;;;;;;;;5037559;28;20094;-29
2022/10/17 12:51:05;;;;;;;24.08;3.58;;;;;;;;;;5036941;28;20033;-29
2022/10/17 12:53:54;;;;;;;27.85;3.42;;;;;;;;;;5019170;28;20180;-29
2022/10/17 12:56:21;;;;;;;7.72;2.55;;;;;;;;;;5019931;28;20124;-29
2022/10/17 12:58:49;;;;;;;9.57;2.30;;;;;;;;;;5019452;28;20032;-29
2022/10/17 13:01:26;;;;;;;17.38;3.15;;;;;;;;;;5019205;28;20033;-29
2022/10/17 13:03:52;;;;;;;19.52;3.80;;;;;;;;;;5036542;28;20457;-29
2022/10/17 13:06:23;;;;;;;19.90;3.22;;;;;;;;;;5036754;28;20033;-29
2022/10/17 13:09:12;;;;;;;19.23;3.35;;;;;;;;;;5036730;28;20029;-29
2022/10/17 13:11:39;;;;;;;22.42;4.07;;;;;;;;;;5036921;28;20037;-29
2022/10/17 13:14:11;;;;;;;13.88;2.58;;;;;;;;;;5036725;28;20060;-29
2022/10/17 13:16:50;;;;;;;19.88;3.20;;;;;;;;;;5036609;28;20051;-29
2022/10/17 13:19:22;;;;;;;14.23;2.90;;;;;;;;;;5037657;28;20402;-29
2022/10/17 13:22:01;;;;;;;10.52;3.10;;;;;;;;;;5036346;28;20033;-29
2022/10/17 13:24:31;;;;;;;17.73;2.55;;;;;;;;;;5036602;28;20092;-29
2022/10/17 13:26:58;;;;;;;16.40;3.33;;;;;;;;;;5036348;28;20104;-29
2022/10/17 13:29:27;;;;;;;19.17;3.47;;;;;;;;;;5036104;28;20459;-29
2022/10/17 13:31:54;;;;;;;22.92;2.90;;;;;;;;;;5036063;28;20033;-29
2022/10/17 13:34:22;;;;;;;16.33;3.25;;;;;;;;;;5036008;28;20032;-29
2022/10/17 13:36:50;;;;;;;15.10;5.35;;;;;;;;;;5036085;28;20025;-29
2022/10/17 13:51:41;;;;;;;14.60;2.95;;;;;;;;;;5036029;28;20487;-28
2022/10/17 13:54:17;;;;;;;24.27;3.50;;;;;;;;;;5035850;28;20036;-28
2022/10/17 13:56:43;;;;;;;18.80;3.10;;;;;;;;;;5036070;28;20440;-28
2022/10/17 13:59:23;;;;;;;15.13;3.20;;;;;;;;;;5035850;28;20026;-28
2022/10/17 14:01:51;;;;;;;16.48;3.58;;;;;;;;;;5035561;28;20464;-28
2022/10/17 14:04:17;;;;;;;19.27;3.22;;;;;;;;;;5035489;28;20388;-28
2022/10/17 14:06:44;;;;;;;22.35;3.50;;;;;;;;;;5018247;28;20040;-30
2022/10/17 14:09:36;;;;;;;15.48;3.17;;;;;;;;;;5035916;28;20052;-28
2022/10/17 14:12:07;;;;;;;7.57;2.72;;;;;;;;;;5032729;28;20063;-28
2022/10/17 14:14:33;;;;;;;19.50;5.32;;;;;;;;;;5036159;28;20033;-28
2022/10/17 14:16:59;;;;;;;18.10;3.28;;;;;;;;;;5035365;28;20403;-28
2022/10/17 14:19:28;;;;;;;11.55;2.95;;;;;;;;;;5035611;28;20033;-28
2022/10/17 14:21:55;;;;;;;15.65;5.18;;;;;;;;;;5035153;28;20025;-28
2022/10/17 14:24:22;;;;;;;18.30;3.65;;;;;;;;;;5035194;28;20033;-28
2022/10/17 14:26:49;;;;;;;13.30;2.90;;;;;;;;;;5017756;28;20052;-30
2022/10/17 14:29:44;;;;;;;10.98;3.63;;;;;;;;;;5035408;28;20060;-28
2022/10/17 14:32:14;;;;;;;15.65;3.25;;;;;;;;;;5005161;28;20110;-28
2022/10/17 14:34:41;;;;;;;16.98;3.50;;;;;;;;;;5017577;28;20063;-28
2022/10/17 14:37:30;;;;;;;20.38;3.85;;;;;;;;;;5035226;28;20026;-27
2022/10/17 14:39:59;;;;;;;15.23;3.50;;;;;;;;;;5009226;28;20037;-27
2022/10/17 14:42:25;;;;;;;15.52;3.42;;;;;;;;;;5035080;28;20403;-28
2022/10/17 14:44:53;;;;;;;13.20;3.67;;;;;;;;;;5034811;28;20063;-28
2022/10/17 14:47:25;;;;;;;24.17;4.55;;;;;;;;;;5034765;28;20127;-28
2022/10/17 14:50:01;;;;;;;18.42;3.20;;;;;;;;;;5034951;28;20021;-28
2022/10/17 14:52:28;;;;;;;10.18;3.33;;;;;;;;;;5034934;28;20033;-28
2022/10/17 14:54:55;;;;;;;11.40;2.90;;;;;;;;;;5034839;28;20029;-28
2022/10/17 14:57:24;;;;;;;11.70;2.60;;;;;;;;;;5034990;28;20408;-28
2022/10/17 14:59:51;;;;;;;19.67;3.70;;;;;;;;;;5034771;28;20087;-28
2022/10/17 15:02:17;;;;;;;16.92;4.15;;;;;;;;;;5016818;28;20025;-28
2022/10/17 15:04:43;;;;;;;17.10;4.00;;;;;;;;;;5034856;28;20425;-28
2022/10/17 15:07:14;;;;;;;16.25;3.28;;;;;;;;;;5017109;28;20120;-28